Time;durP1;ratioP1;P1;durP2;ratioP2;P2;SDS_P1;SDS_P2;PMS_P1;PMS_P2;Temp;Humidity;BMP_temperature;BMP_pressure;BME280_temperature;BME280_humidity;BME280_pressure;Samples;Min_cycle;Max_cycle;Signal;HPM_P1;HPM_P2
2022/04/19 00:01:45;;;;;;;;;16.50;15.00;;;;;-145.45;100.00;57426.63;5074965;27;45268;-76
2022/04/19 00:04:11;;;;;;;;;13.00;13.00;;;;;-145.45;100.00;57426.63;5063805;28;45322;-76
2022/04/19 00:06:37;;;;;;;;;16.50;13.25;;;;;-145.45;100.00;57426.63;5068347;28;45536;-76
2022/04/19 00:09:03;;;;;;;;;14.00;12.75;;;;;-145.45;100.00;57426.63;5061662;28;46343;-76
2022/04/19 00:11:29;;;;;;;;;11.50;11.50;;;;;-145.45;100.00;57426.63;5070884;27;45344;-76
2022/04/19 00:13:54;;;;;;;;;11.75;11.75;;;;;-145.45;100.00;57426.63;5060411;28;45349;-75
2022/04/19 00:16:19;;;;;;;;;14.50;13.25;;;;;-145.45;100.00;57426.63;5071112;27;45455;-75
2022/04/19 00:18:45;;;;;;;;;13.25;11.00;;;;;-145.45;100.00;57426.63;5063589;28;45468;-76
2022/04/19 00:21:10;;;;;;;;;16.00;13.75;;;;;-145.45;100.00;57426.63;5071120;28;45372;-75
2022/04/19 00:23:36;;;;;;;;;11.50;10.25;;;;;-145.45;100.00;57426.63;5065992;28;45312;-75
2022/04/19 00:26:01;;;;;;;;;13.75;9.75;;;;;-145.45;100.00;57426.63;5085615;27;45947;-76
2022/04/19 00:28:27;;;;;;;;;12.00;8.00;;;;;-145.45;100.00;57426.63;5063805;28;45426;-76
2022/04/19 00:30:52;;;;;;;;;14.75;12.75;;;;;-145.45;100.00;57426.63;5068699;28;45283;-75
2022/04/19 00:33:17;;;;;;;;;16.00;13.25;;;;;-145.45;100.00;57426.63;5079496;27;45255;-76
2022/04/19 00:35:43;;;;;;;;;12.00;12.00;;;;;-145.45;100.00;57426.63;5071020;27;45459;-76
2022/04/19 00:38:09;;;;;;;;;15.25;12.75;;;;;-145.45;100.00;57426.63;5060141;28;47933;-75
2022/04/19 00:40:35;;;;;;;;;11.50;9.75;;;;;-145.45;100.00;57426.63;5071697;27;45171;-75
2022/04/19 00:43:01;;;;;;;;;14.25;11.00;;;;;-145.45;100.00;57426.63;5076904;28;45428;-76
2022/04/19 00:45:27;;;;;;;;;11.50;10.75;;;;;-145.45;100.00;57426.63;5072023;28;45899;-75
2022/04/19 00:47:53;;;;;;;;;11.50;7.50;;;;;-145.45;100.00;57426.63;5060393;28;45405;-76
2022/04/19 00:50:19;;;;;;;;;15.00;12.50;;;;;-145.45;100.00;57426.63;5067572;28;45367;-76
2022/04/19 00:52:45;;;;;;;;;12.00;12.00;;;;;-145.45;100.00;57426.63;5071612;27;45321;-75
2022/04/19 00:55:11;;;;;;;;;13.00;13.00;;;;;-145.45;100.00;57426.63;5067588;28;45302;-75
2022/04/19 00:57:38;;;;;;;;;11.75;11.75;;;;;-145.45;100.00;57426.63;5071139;27;46139;-76
2022/04/19 01:00:08;;;;;;;;;17.00;11.00;;;;;-145.45;100.00;57426.63;5070170;28;45308;-75
2022/04/19 01:02:35;;;;;;;;;12.25;10.50;;;;;-145.45;100.00;57426.63;5070761;28;45659;-74
2022/04/19 01:05:00;;;;;;;;;15.00;11.50;;;;;-145.45;100.00;57426.63;5065667;28;45272;-74
2022/04/19 01:07:26;;;;;;;;;19.00;14.50;;;;;-145.45;100.00;57426.63;5069199;28;47170;-75
2022/04/19 01:09:51;;;;;;;;;13.25;12.00;;;;;-145.45;100.00;57426.63;5064504;28;45650;-75
2022/04/19 01:15:06;;;;;;;;;10.50;7.00;;;;;-145.45;100.00;57426.63;5066268;28;45312;-76
2022/04/19 01:17:35;;;;;;;;;15.75;11.00;;;;;-145.45;100.00;57426.63;5065457;27;47166;-75
2022/04/19 01:20:02;;;;;;;;;12.50;9.50;;;;;-145.45;100.00;57426.63;5072536;28;45970;-76
2022/04/19 01:22:32;;;;;;;;;7.75;6.75;;;;;-145.45;100.00;57426.63;5082235;27;45334;-76
2022/04/19 01:24:58;;;;;;;;;9.75;7.25;;;;;-145.45;100.00;57426.63;5063098;28;45461;-76
2022/04/19 01:27:23;;;;;;;;;5.25;5.00;;;;;-145.45;100.00;57426.63;5064910;28;45934;-76
2022/04/19 01:29:50;;;;;;;;;12.00;9.75;;;;;-145.45;100.00;57426.63;5070198;28;45489;-76
2022/04/19 01:32:17;;;;;;;;;10.25;7.50;;;;;-145.45;100.00;57426.63;5061471;27;45230;-77
2022/04/19 01:34:42;;;;;;;;;10.50;7.00;;;;;-145.45;100.00;57426.63;5069078;28;45492;-75
2022/04/19 01:37:09;;;;;;;;;12.50;6.00;;;;;-145.45;100.00;57426.63;5078414;27;45350;-76
2022/04/19 01:42:18;;;;;;;;;9.00;6.50;;;;;-145.45;100.00;57426.63;5060400;28;45406;-76
2022/04/19 01:44:44;;;;;;;;;8.25;8.25;;;;;-145.45;100.00;57426.63;5069099;28;45553;-76
2022/04/19 01:47:10;;;;;;;;;9.00;9.00;;;;;-145.45;100.00;57426.63;5062063;27;45415;-76
2022/04/19 01:49:36;;;;;;;;;10.25;8.75;;;;;-145.45;100.00;57426.63;5066183;28;45370;-76
2022/04/19 01:52:03;;;;;;;;;7.50;6.00;;;;;-145.45;100.00;57426.63;5073636;28;45342;-76
2022/04/19 01:54:31;;;;;;;;;12.75;6.00;;;;;-145.45;100.00;57426.63;5065209;28;45461;-75
2022/04/19 01:56:56;;;;;;;;;6.75;6.75;;;;;-145.45;100.00;57426.63;5072023;28;45442;-76
2022/04/19 01:59:22;;;;;;;;;8.00;6.00;;;;;-145.45;100.00;57426.63;5066042;28;48167;-75
2022/04/19 02:01:51;;;;;;;;;7.25;5.25;;;;;-145.45;100.00;57426.63;5073363;28;45219;-75
2022/04/19 02:04:18;;;;;;;;;7.75;6.75;;;;;-145.45;100.00;57426.63;5065166;28;45526;-76
2022/04/19 02:06:44;;;;;;;;;7.25;6.25;;;;;-145.45;100.00;57426.63;5069515;28;45482;-75
2022/04/19 02:09:09;;;;;;;;;8.50;6.50;;;;;-145.45;100.00;57426.63;5063980;28;45384;-75
2022/04/19 02:11:35;;;;;;;;;7.00;5.00;;;;;-145.45;100.00;57426.63;5073984;28;45370;-75
2022/04/19 02:14:00;;;;;;;;;6.50;5.25;;;;;-145.45;100.00;57426.63;5073639;27;45417;-75
2022/04/19 02:16:25;;;;;;;;;7.50;6.75;;;;;-145.45;100.00;57426.63;5067984;27;46248;-74
2022/04/19 02:18:52;;;;;;;;;5.00;5.00;;;;;-145.45;100.00;57426.63;5073974;27;45351;-76
2022/04/19 02:21:18;;;;;;;;;10.75;5.75;;;;;-145.45;100.00;57426.63;5064181;28;45452;-76
2022/04/19 02:23:43;;;;;;;;;7.25;6.75;;;;;-145.45;100.00;57426.63;5066717;28;45425;-75
2022/04/19 02:26:09;;;;;;;;;8.00;5.50;;;;;-145.45;100.00;57426.63;5068430;28;46285;-75
2022/04/19 02:28:34;;;;;;;;;9.75;6.00;;;;;-145.45;100.00;57426.63;5064601;28;45265;-76
2022/04/19 02:30:59;;;;;;;;;8.50;6.75;;;;;-145.45;100.00;57426.63;5067321;28;45253;-74
2022/04/19 02:33:25;;;;;;;;;9.25;4.00;;;;;-145.45;100.00;57426.63;5068804;28;45411;-74
2022/04/19 02:35:52;;;;;;;;;9.25;7.50;;;;;-145.45;100.00;57426.63;5068349;28;46471;-74
2022/04/19 02:38:18;;;;;;;;;7.25;5.50;;;;;-145.45;100.00;57426.63;5060440;28;45318;-74
2022/04/19 02:40:43;;;;;;;;;5.00;4.00;;;;;-145.45;100.00;57426.63;5068732;27;45295;-75
2022/04/19 02:43:08;;;;;;;;;6.25;5.00;;;;;-145.45;100.00;57426.63;5059861;28;45509;-76
2022/04/19 02:45:34;;;;;;;;;8.25;5.75;;;;;-145.45;100.00;57426.63;5068904;28;47070;-75
2022/04/19 02:48:08;;;;;;;;;4.50;4.50;;;;;-145.45;100.00;57426.63;5068146;27;45247;-74
2022/04/19 02:50:40;;;;;;;;;6.00;6.00;;;;;-145.45;100.00;57426.63;5069770;28;45426;-74
2022/04/19 02:53:05;;;;;;;;;8.75;8.75;;;;;-145.45;100.00;57426.63;5076889;27;45334;-75
2022/04/19 02:55:31;;;;;;;;;6.00;6.00;;;;;-145.45;100.00;57426.63;5063833;28;46335;-75
2022/04/19 02:57:56;;;;;;;;;6.25;6.25;;;;;-145.45;100.00;57426.63;5066967;28;45350;-76
2022/04/19 03:00:23;;;;;;;;;6.00;6.00;;;;;-145.45;100.00;57426.63;5071500;28;45493;-75
2022/04/19 03:02:49;;;;;;;;;9.00;7.25;;;;;-145.45;100.00;57426.63;5074226;28;46184;-75
2022/04/19 03:05:15;;;;;;;;;5.00;4.00;;;;;-145.45;100.00;57426.63;5066641;28;45501;-75
2022/04/19 03:07:41;;;;;;;;;6.50;6.50;;;;;-145.45;100.00;57426.63;5067368;27;45300;-75
2022/04/19 03:10:06;;;;;;;;;8.25;5.75;;;;;-145.45;100.00;57426.63;5069419;28;45232;-74
2022/04/19 03:12:32;;;;;;;;;5.00;4.25;;;;;-145.45;100.00;57426.63;5065761;28;47071;-74
2022/04/19 03:14:57;;;;;;;;;14.00;8.00;;;;;-145.45;100.00;57426.63;5065518;28;45398;-75
2022/04/19 03:17:23;;;;;;;;;8.00;5.25;;;;;-145.45;100.00;57426.63;5066679;28;45214;-75
2022/04/19 03:19:48;;;;;;;;;8.50;5.25;;;;;-145.45;100.00;57426.63;5063187;28;45237;-75
2022/04/19 03:22:13;;;;;;;;;8.25;5.00;;;;;-145.45;100.00;57426.63;5065692;28;45399;-75
2022/04/19 03:28:05;;;;;;;;;8.75;8.25;;;;;-145.45;100.00;57426.63;5064301;28;45202;-75
2022/04/19 03:30:14;;;;;;;;;8.75;6.00;;;;;-145.45;100.00;57426.63;5069349;28;45460;-75
2022/04/19 03:32:44;;;;;;;;;6.25;6.00;;;;;-145.45;100.00;57426.63;5058375;28;45315;-76
2022/04/19 03:35:10;;;;;;;;;5.00;5.00;;;;;-145.45;100.00;57426.63;5070600;28;45318;-75
2022/04/19 03:37:39;;;;;;;;;5.75;4.25;;;;;-145.45;100.00;57426.63;5058549;28;45289;-76
2022/04/19 03:40:06;;;;;;;;;6.25;5.75;;;;;-145.45;100.00;57426.63;5069759;28;45442;-74
2022/04/19 03:42:31;;;;;;;;;4.00;3.50;;;;;-145.45;100.00;57426.63;5058354;28;45549;-75
2022/04/19 03:44:56;;;;;;;;;8.00;5.00;;;;;-145.45;100.00;57426.63;5069017;28;46028;-74
2022/04/19 03:47:22;;;;;;;;;8.00;8.00;;;;;-145.45;100.00;57426.63;5058740;27;45299;-74
2022/04/19 03:49:47;;;;;;;;;9.00;5.00;;;;;-145.45;100.00;57426.63;5063744;28;45383;-74
2022/04/19 03:52:12;;;;;;;;;8.50;7.00;;;;;-145.45;100.00;57426.63;5075055;28;45260;-74
2022/04/19 03:54:38;;;;;;;;;5.00;5.00;;;;;-145.45;100.00;57426.63;5067345;28;44920;-74
2022/04/19 03:57:07;;;;;;;;;4.00;3.75;;;;;-145.45;100.00;57426.63;5074097;28;45224;-74
2022/04/19 03:59:33;;;;;;;;;3.25;3.25;;;;;-145.45;100.00;57426.63;5068065;28;45497;-75
2022/04/19 04:01:59;;;;;;;;;7.00;5.50;;;;;-145.45;100.00;57426.63;5074826;27;45375;-74
2022/04/19 04:04:30;;;;;;;;;7.00;6.25;;;;;-145.45;100.00;57426.63;5073183;28;48427;-74
2022/04/19 04:06:56;;;;;;;;;8.00;5.00;;;;;-145.45;100.00;57426.63;5074676;28;45383;-74
2022/04/19 04:09:21;;;;;;;;;6.50;4.75;;;;;-145.45;100.00;57426.63;5067905;28;45753;-74
2022/04/19 04:11:47;;;;;;;;;8.75;6.50;;;;;-145.45;100.00;57426.63;5070788;28;47234;-74
2022/04/19 04:14:12;;;;;;;;;6.75;6.75;;;;;-145.45;100.00;57426.63;5067620;28;45364;-75
2022/04/19 04:16:37;;;;;;;;;7.75;3.50;;;;;-145.45;100.00;57426.63;5075414;27;45285;-75
2022/04/19 04:19:03;;;;;;;;;6.00;5.00;;;;;-145.45;100.00;57426.63;5075259;27;45287;-74
2022/04/19 04:21:28;;;;;;;;;5.00;3.75;;;;;-145.45;100.00;57426.63;5069634;27;45431;-75
2022/04/19 04:23:53;;;;;;;;;3.00;3.00;;;;;-145.45;100.00;57426.63;5064066;28;45462;-76
2022/04/19 04:26:19;;;;;;;;;5.00;4.00;;;;;-145.45;100.00;57426.63;5065371;28;45345;-75
2022/04/19 04:28:44;;;;;;;;;4.00;4.00;;;;;-145.45;100.00;57426.63;5067825;28;45375;-75
2022/04/19 04:31:09;;;;;;;;;5.50;4.25;;;;;-145.45;100.00;57426.63;5070288;28;45367;-76
2022/04/19 04:33:35;;;;;;;;;5.00;4.00;;;;;-145.45;100.00;57426.63;5063642;28;45310;-79
2022/04/19 04:36:00;;;;;;;;;4.50;4.25;;;;;-145.45;100.00;57426.63;5068962;28;45420;-77
2022/04/19 04:38:25;;;;;;;;;5.50;3.25;;;;;-145.45;100.00;57426.63;5071304;28;45351;-77
2022/04/19 04:40:51;;;;;;;;;6.00;5.00;;;;;-145.45;100.00;57426.63;5070825;27;45413;-79
2022/04/19 04:43:16;;;;;;;;;8.00;4.00;;;;;-145.45;100.00;57426.63;5061011;28;47291;-78
2022/04/19 04:45:42;;;;;;;;;5.25;4.00;;;;;-145.45;100.00;57426.63;5071384;27;45213;-78
2022/04/19 04:50:51;;;;;;;;;8.75;5.00;;;;;-145.45;100.00;57426.63;5068165;28;45307;-76
2022/04/19 04:53:16;;;;;;;;;4.00;3.00;;;;;-145.45;100.00;57426.63;5067774;27;45284;-79
2022/04/19 04:55:41;;;;;;;;;4.50;3.25;;;;;-145.45;100.00;57426.63;5071182;28;45276;-76
2022/04/19 04:58:09;;;;;;;;;4.25;3.75;;;;;-145.45;100.00;57426.63;5078946;28;45402;-79
2022/04/19 05:00:35;;;;;;;;;4.00;4.00;;;;;-145.45;100.00;57426.63;5074205;28;45583;-80
2022/04/19 05:03:00;;;;;;;;;4.00;2.00;;;;;-145.45;100.00;57426.63;5066161;27;46124;-77
2022/04/19 05:05:25;;;;;;;;;4.75;3.25;;;;;-145.45;100.00;57426.63;5066385;28;45280;-80
2022/04/19 05:07:51;;;;;;;;;5.00;4.00;;;;;-145.45;100.00;57426.63;5076884;28;45374;-77
2022/04/19 05:10:16;;;;;;;;;3.00;3.00;;;;;-145.45;100.00;57426.63;5065855;28;46500;-77
2022/04/19 05:12:42;;;;;;;;;7.25;5.00;;;;;-145.45;100.00;57426.63;5074484;28;45372;-74
2022/04/19 05:15:08;;;;;;;;;4.75;4.75;;;;;-145.45;100.00;57426.63;5066468;28;45746;-76
2022/04/19 05:17:33;;;;;;;;;7.00;4.00;;;;;-145.45;100.00;57426.63;5070076;28;45331;-76
2022/04/19 05:19:59;;;;;;;;;5.00;5.00;;;;;-145.45;100.00;57426.63;5064256;28;45321;-75
2022/04/19 05:22:24;;;;;;;;;8.75;3.50;;;;;-145.45;100.00;57426.63;5080279;28;45306;-74
2022/04/19 05:24:49;;;;;;;;;5.00;4.25;;;;;-145.45;100.00;57426.63;5076049;28;45335;-77
2022/04/19 05:27:15;;;;;;;;;5.00;5.00;;;;;-145.45;100.00;57426.63;5067767;27;45388;-77
2022/04/19 05:29:40;;;;;;;;;4.25;4.25;;;;;-145.45;100.00;57426.63;5069250;28;45424;-76
2022/04/19 05:32:06;;;;;;;;;7.00;5.25;;;;;-145.45;100.00;57426.63;5079072;27;45904;-75
2022/04/19 05:34:31;;;;;;;;;10.00;4.00;;;;;-145.45;100.00;57426.63;5073382;27;45237;-75
2022/04/19 05:36:57;;;;;;;;;8.25;5.00;;;;;-145.45;100.00;57426.63;5065084;27;45877;-75
2022/04/19 05:39:23;;;;;;;;;4.50;3.00;;;;;-145.45;100.00;57426.63;5064824;28;45583;-75
2022/04/19 05:41:48;;;;;;;;;4.00;3.25;;;;;-145.45;100.00;57426.63;5064895;28;47168;-75
2022/04/19 05:44:14;;;;;;;;;4.75;4.75;;;;;-145.45;100.00;57426.63;5076161;27;45393;-75
2022/04/19 05:46:39;;;;;;;;;5.25;4.00;;;;;-145.45;100.00;57426.63;5074613;28;45432;-75
2022/04/19 05:49:05;;;;;;;;;12.00;6.75;;;;;-145.45;100.00;57426.63;5065739;27;45420;-76
2022/04/19 05:51:31;;;;;;;;;8.00;6.00;;;;;-145.45;100.00;57426.63;5072352;28;45268;-75
2022/04/19 05:53:56;;;;;;;;;6.50;5.00;;;;;-145.45;100.00;57426.63;5065242;28;45517;-74
2022/04/19 05:56:22;;;;;;;;;12.25;5.00;;;;;-145.45;100.00;57426.63;5075013;27;45421;-75
2022/04/19 05:58:47;;;;;;;;;5.75;5.00;;;;;-145.45;100.00;57426.63;5063016;28;45462;-76
2022/04/19 06:01:13;;;;;;;;;8.00;8.00;;;;;-145.45;100.00;57426.63;5074119;28;47002;-78
2022/04/19 06:06:22;;;;;;;;;7.25;7.25;;;;;-145.45;100.00;57426.63;5074409;28;45418;-75
2022/04/19 06:08:49;;;;;;;;;10.25;9.25;;;;;-145.45;100.00;57426.63;5062342;28;45469;-75
2022/04/19 06:11:15;;;;;;;;;7.25;6.25;;;;;-145.45;100.00;57426.63;5071774;28;45369;-75
2022/04/19 06:13:41;;;;;;;;;11.50;9.00;;;;;-145.45;100.00;57426.63;5062069;28;45442;-74
2022/04/19 06:16:06;;;;;;;;;12.25;10.25;;;;;-145.45;100.00;57426.63;5062409;28;45299;-75
2022/04/19 06:18:33;;;;;;;;;8.50;8.25;;;;;-145.45;100.00;57426.63;5061434;28;45555;-74
2022/04/19 06:20:59;;;;;;;;;10.25;8.75;;;;;-145.45;100.00;57426.63;5062343;28;47073;-75
2022/04/19 06:23:25;;;;;;;;;10.00;5.50;;;;;-145.45;100.00;57426.63;5061652;28;45259;-76
2022/04/19 06:25:51;;;;;;;;;9.75;8.75;;;;;-145.45;100.00;57426.63;5065201;27;44829;-75
2022/04/19 06:28:17;;;;;;;;;12.75;10.00;;;;;-145.45;100.00;57426.63;5060382;28;45738;-75
2022/04/19 06:30:43;;;;;;;;;11.25;9.75;;;;;-145.45;100.00;57426.63;5068230;27;47544;-74
2022/04/19 06:33:08;;;;;;;;;14.00;12.00;;;;;-145.45;100.00;57426.63;5059263;28;45391;-75
2022/04/19 06:35:34;;;;;;;;;11.25;11.25;;;;;-145.45;100.00;57426.63;5086141;27;45346;-76
2022/04/19 06:37:59;;;;;;;;;18.75;13.00;;;;;-145.45;100.00;57426.63;5059371;28;45411;-76
2022/04/19 06:40:24;;;;;;;;;14.00;11.50;;;;;-145.45;100.00;57426.63;5070646;28;46173;-74
2022/04/19 06:42:50;;;;;;;;;13.25;11.50;;;;;-145.45;100.00;57426.63;5058141;28;45265;-74
2022/04/19 06:45:15;;;;;;;;;14.00;12.75;;;;;-145.45;100.00;57426.63;5070498;28;45448;-77
2022/04/19 06:47:40;;;;;;;;;12.00;12.00;;;;;-145.45;100.00;57426.63;5059070;28;45355;-74
2022/04/19 06:50:06;;;;;;;;;16.25;13.25;;;;;-145.45;100.00;57426.63;5066277;28;45871;-74
2022/04/19 06:52:33;;;;;;;;;19.00;11.75;;;;;-145.45;100.00;57426.63;5077801;27;45368;-75
2022/04/19 06:54:58;;;;;;;;;17.50;15.75;;;;;-145.45;100.00;57426.63;5068227;27;45426;-75
2022/04/19 06:57:23;;;;;;;;;15.75;13.00;;;;;-145.45;100.00;57426.63;5074855;28;46207;-77
2022/04/19 06:59:49;;;;;;;;;15.00;13.50;;;;;-145.45;100.00;57426.63;5067458;28;45359;-75
2022/04/19 07:02:14;;;;;;;;;16.25;13.75;;;;;-145.45;100.00;57426.63;5069755;28;45456;-78
2022/04/19 07:04:41;;;;;;;;;12.25;10.50;;;;;-145.45;100.00;57426.63;5064390;28;45326;-76
2022/04/19 07:07:07;;;;;;;;;11.75;11.50;;;;;-145.45;100.00;57426.63;5068001;28;45408;-74
2022/04/19 07:09:33;;;;;;;;;14.00;13.25;;;;;-145.45;100.00;57426.63;5064431;28;47711;-77
2022/04/19 07:11:58;;;;;;;;;18.00;16.50;;;;;-145.45;100.00;57426.63;5067512;28;45435;-75
2022/04/19 07:14:24;;;;;;;;;17.00;14.00;;;;;-145.45;100.00;57426.63;5063691;28;45538;-74
2022/04/19 07:16:51;;;;;;;;;17.25;12.50;;;;;-145.45;100.00;57426.63;5074465;28;46071;-74
2022/04/19 07:19:17;;;;;;;;;13.50;13.00;;;;;-145.45;100.00;57426.63;5062113;28;45422;-74
2022/04/19 07:27:28;;;;;;;;;9.50;9.50;;;;;-145.45;100.00;57426.63;5082667;28;45453;-74
2022/04/19 07:29:53;;;;;;;;;15.00;13.50;;;;;-145.45;100.00;57426.63;5081158;27;46052;-74
2022/04/19 07:32:18;;;;;;;;;9.50;9.25;;;;;-145.45;100.00;57426.63;5066887;27;45260;-74
2022/04/19 07:34:44;;;;;;;;;18.00;14.75;;;;;-145.45;100.00;57426.63;5069059;28;45395;-74
2022/04/19 07:37:09;;;;;;;;;15.50;13.75;;;;;-145.45;100.00;57426.63;5078773;28;46969;-75
2022/04/19 07:39:34;;;;;;;;;11.75;11.25;;;;;-145.45;100.00;57426.63;5079142;27;45416;-75
2022/04/19 07:42:00;;;;;;;;;15.75;14.75;;;;;-145.45;100.00;57426.63;5068968;28;46142;-74
2022/04/19 07:44:28;;;;;;;;;19.50;15.00;;;;;-145.45;100.00;57426.63;5078941;27;45233;-74
2022/04/19 07:46:54;;;;;;;;;19.50;14.00;;;;;-145.45;100.00;57426.63;5070058;27;45464;-73
2022/04/19 07:49:19;;;;;;;;;15.25;11.75;;;;;-145.45;100.00;57426.63;5071612;28;46201;-74
2022/04/19 07:51:44;;;;;;;;;17.75;13.25;;;;;-145.45;100.00;57426.63;5077909;28;45170;-74
2022/04/19 07:54:10;;;;;;;;;11.00;11.00;;;;;-145.45;100.00;57426.63;5069022;28;45398;-75
2022/04/19 07:56:35;;;;;;;;;12.00;11.00;;;;;-145.45;100.00;57426.63;5082447;27;45442;-75
2022/04/19 07:59:01;;;;;;;;;16.25;13.00;;;;;-145.45;100.00;57426.63;5069228;28;45232;-76
2022/04/19 08:01:26;;;;;;;;;14.75;11.50;;;;;-145.45;100.00;57426.63;5079939;28;45223;-75
2022/04/19 08:03:51;;;;;;;;;10.75;10.75;;;;;-145.45;100.00;57426.63;5067441;28;45450;-75
2022/04/19 08:06:17;;;;;;;;;14.75;12.00;;;;;-145.45;100.00;57426.63;5078286;28;45509;-75
2022/04/19 08:08:43;;;;;;;;;10.75;10.50;;;;;-145.45;100.00;57426.63;5067692;28;47177;-75
2022/04/19 08:11:09;;;;;;;;;12.25;10.50;;;;;-145.45;100.00;57426.63;5075611;28;45319;-73
2022/04/19 08:13:35;;;;;;;;;14.00;9.25;;;;;-145.45;100.00;57426.63;5068758;28;45409;-75
2022/04/19 08:16:00;;;;;;;;;14.00;11.75;;;;;-145.45;100.00;57426.63;5074746;27;45520;-75
2022/04/19 08:18:26;;;;;;;;;13.25;11.75;;;;;-145.45;100.00;57426.63;5076556;28;45338;-75
2022/04/19 08:20:51;;;;;;;;;12.25;10.25;;;;;-145.45;100.00;57426.63;5073345;28;45460;-76
2022/04/19 08:23:17;;;;;;;;;9.33;9.00;;;;;-145.45;100.00;57426.63;5081234;28;45283;-75
2022/04/19 08:25:43;;;;;;;;;13.33;11.33;;;;;-145.45;100.00;57426.63;5075090;28;45516;-75
2022/04/19 08:28:09;;;;;;;;;13.00;12.00;;;;;-145.45;100.00;57426.63;5080199;28;45535;-75
2022/04/19 08:30:34;;;;;;;;;13.67;11.33;;;;;-145.45;100.00;57426.63;5078562;28;45393;-75
2022/04/19 08:33:00;;;;;;;;;12.67;11.00;;;;;-145.45;100.00;57426.63;5064337;28;45482;-75
2022/04/19 08:35:26;;;;;;;;;14.33;12.00;;;;;-145.45;100.00;57426.63;5076062;28;45878;-73
2022/04/19 08:37:51;;;;;;;;;14.67;11.67;;;;;-145.45;100.00;57426.63;5060503;28;45245;-73
2022/04/19 08:40:17;;;;;;;;;13.33;10.67;;;;;-145.45;100.00;57426.63;5074651;28;45827;-74
2022/04/19 08:42:44;;;;;;;;;11.00;9.67;;;;;-145.45;100.00;57426.63;5061580;28;45345;-73
2022/04/19 08:45:12;;;;;;;;;14.00;11.67;;;;;-145.45;100.00;57426.63;5067634;28;46058;-75
2022/04/19 08:47:48;;;;;;;;;12.33;10.67;;;;;-145.45;100.00;57426.63;5071655;27;47407;-75
2022/04/19 08:50:18;;;;;;;;;12.33;10.00;;;;;-145.45;100.00;57426.63;5067775;28;45501;-76
2022/04/19 08:52:45;;;;;;;;;13.00;10.67;;;;;-145.45;100.00;57426.63;5072267;28;45458;-78
2022/04/19 08:57:56;;;;;;;;;13.00;12.33;;;;;-145.45;100.00;57426.63;5072789;28;45785;-75
2022/04/19 09:00:24;;;;;;;;;8.33;8.33;;;;;-145.45;100.00;57426.63;5071544;27;45301;-75
2022/04/19 09:02:52;;;;;;;;;14.33;10.33;;;;;-145.45;100.00;57426.63;5079160;28;45263;-75
2022/04/19 09:05:20;;;;;;;;;13.33;10.00;;;;;-145.45;100.00;57426.63;5070215;27;45520;-75
2022/04/19 09:07:47;;;;;;;;;6.67;6.00;;;;;-145.45;100.00;57426.63;5067537;28;47212;-75
2022/04/19 09:10:33;;;;;;;;;10.33;9.33;;;;;-145.45;100.00;57426.63;5066015;28;45499;-75
2022/04/19 09:13:07;;;;;;;;;9.00;6.00;;;;;-145.45;100.00;57426.63;5075618;28;45249;-75
2022/04/19 09:15:38;;;;;;;;;9.00;9.00;;;;;-145.45;100.00;57426.63;5065041;28;46314;-75
2022/04/19 09:18:13;;;;;;;;;11.00;8.00;;;;;-145.45;100.00;57426.63;5075992;28;45377;-75
2022/04/19 09:20:39;;;;;;;;;10.00;9.67;;;;;-145.45;100.00;57426.63;5069522;27;45276;-75
2022/04/19 09:23:05;;;;;;;;;13.00;11.00;;;;;-145.45;100.00;57426.63;5076291;28;45362;-75
2022/04/19 09:25:32;;;;;;;;;13.67;9.33;;;;;-145.45;100.00;57426.63;5067087;27;45438;-76
2022/04/19 09:27:59;;;;;;;;;9.00;9.00;;;;;-145.45;100.00;57426.63;5061056;28;46252;-75
2022/04/19 09:30:29;;;;;;;;;9.00;9.00;;;;;-145.45;100.00;57426.63;5065047;28;45419;-75
2022/04/19 09:33:03;;;;;;;;;11.67;9.00;;;;;-145.45;100.00;57426.63;5060358;28;45401;-75
2022/04/19 09:35:41;;;;;;;;;13.67;9.67;;;;;-145.45;100.00;57426.63;5072117;28;46060;-73
2022/04/19 09:38:08;;;;;;;;;11.33;9.33;;;;;-145.45;100.00;57426.63;5060389;28;45280;-75
2022/04/19 09:41:00;;;;;;;;;14.67;10.00;;;;;-145.45;100.00;57426.63;5071707;28;45419;-76
2022/04/19 09:43:25;;;;;;;;;10.33;9.00;;;;;-145.45;100.00;57426.63;5068542;28;45458;-75
2022/04/19 09:45:58;;;;;;;;;13.00;9.33;;;;;-145.45;100.00;57426.63;5069485;27;45364;-75
2022/04/19 09:48:39;;;;;;;;;8.00;6.00;;;;;-145.45;100.00;57426.63;5075949;28;48444;-75
2022/04/19 09:51:08;;;;;;;;;12.33;11.33;;;;;-145.45;100.00;57426.63;5064583;28;45394;-74
2022/04/19 09:53:46;;;;;;;;;11.67;11.00;;;;;-145.45;100.00;57426.63;5064936;28;45480;-75
2022/04/19 09:56:16;;;;;;;;;11.33;8.00;;;;;-145.45;100.00;57426.63;5067425;28;45549;-74
2022/04/19 09:58:44;;;;;;;;;10.67;9.00;;;;;-145.45;100.00;57426.63;5063564;28;46089;-75
2022/04/19 10:08:10;;;;;;;;;12.33;10.00;;;;;-145.45;100.00;57426.63;5071019;28;45257;-75
2022/04/19 10:09:34;;;;;;;;;11.00;11.00;;;;;-145.45;100.00;57426.63;5064511;28;45565;-72
2022/04/19 10:12:06;;;;;;;;;10.67;10.67;;;;;-145.45;100.00;57426.63;5067205;28;45367;-73
2022/04/19 10:14:32;;;;;;;;;16.00;10.00;;;;;-145.45;100.00;57426.63;5064166;28;45389;-72
2022/04/19 10:16:58;;;;;;;;;15.33;11.33;;;;;-145.45;100.00;57426.63;5065912;28;45465;-72
2022/04/19 10:19:24;;;;;;;;;11.67;11.67;;;;;-145.45;100.00;57426.63;5066697;28;45378;-72
2022/04/19 10:21:51;;;;;;;;;13.67;11.67;;;;;-145.45;100.00;57426.63;5077188;28;45453;-74
2022/04/19 10:24:18;;;;;;;;;12.00;10.33;;;;;-145.45;100.00;57426.63;5068475;27;45542;-74
2022/04/19 10:26:48;;;;;;;;;11.00;11.00;;;;;-145.45;100.00;57426.63;5066437;28;45207;-73
2022/04/19 10:29:23;;;;;;;;;11.67;10.00;;;;;-145.45;100.00;57426.63;5062946;28;46084;-72
2022/04/19 10:32:08;;;;;;;;;15.00;12.67;;;;;-145.45;100.00;57426.63;5065457;27;45316;-74
2022/04/19 10:34:35;;;;;;;;;13.67;13.00;;;;;-145.45;100.00;57426.63;5065638;28;45289;-75
2022/04/19 10:37:16;;;;;;;;;14.33;13.67;;;;;-145.45;100.00;57426.63;5063648;27;45416;-75
2022/04/19 10:39:57;;;;;;;;;15.33;15.00;;;;;-145.45;100.00;57426.63;5065077;28;47197;-72
2022/04/19 10:42:32;;;;;;;;;11.67;10.67;;;;;-145.45;100.00;57426.63;5060171;27;45454;-72
2022/04/19 10:45:17;;;;;;;;;16.33;14.00;;;;;-145.45;100.00;57426.63;5065671;28;45423;-74
2022/04/19 10:47:52;;;;;;;;;20.33;15.00;;;;;-145.45;100.00;57426.63;5059208;28;45537;-71
2022/04/19 10:50:28;;;;;;;;;15.67;13.33;;;;;-145.45;100.00;57426.63;5065814;28;45467;-71
2022/04/19 10:52:59;;;;;;;;;16.00;15.67;;;;;-145.45;100.00;57426.63;5072132;27;45280;-71
2022/04/19 10:55:27;;;;;;;;;9.33;7.00;;;;;-145.45;100.00;57426.63;5072680;28;45588;-71
2022/04/19 10:58:17;;;;;;;;;16.67;13.67;;;;;-145.45;100.00;57426.63;5078203;28;45575;-71
2022/04/19 11:00:51;;;;;;;;;11.00;11.00;;;;;-145.45;100.00;57426.63;5067482;28;45366;-71
2022/04/19 11:03:26;;;;;;;;;18.00;14.00;;;;;-145.45;100.00;57426.63;5062692;27;45433;-72
2022/04/19 11:05:53;;;;;;;;;9.25;9.25;;;;;-145.45;100.00;57426.63;5069502;28;45322;-72
2022/04/19 11:08:24;;;;;;;;;16.67;11.67;;;;;-145.45;100.00;57426.63;5062297;27;45461;-72
2022/04/19 11:11:31;;;;;;;;;11.25;11.25;;;;;-145.45;100.00;57426.63;5068829;27;46202;-72
2022/04/19 11:14:22;;;;;;;;;13.75;11.75;;;;;-145.45;100.00;57426.63;5062424;28;46083;-73
2022/04/19 11:16:51;;;;;;;;;28.67;28.67;;;;;-145.45;100.00;57426.63;5069625;27;45387;-74
2022/04/19 11:19:22;;;;;;;;;13.00;12.50;;;;;-145.45;100.00;57426.63;5068392;27;45559;-73
2022/04/19 11:21:56;;;;;;;;;11.75;10.25;;;;;-145.45;100.00;57426.63;5064643;28;45181;-73
2022/04/19 11:24:59;;;;;;;;;2.00;2.00;;;;;-145.45;100.00;57426.63;5059719;28;45389;-74
2022/04/19 11:27:53;;;;;;;;;14.75;12.00;;;;;-145.45;100.00;57426.63;5062712;28;45508;-74
2022/04/19 11:30:23;;;;;;;;;13.75;12.50;;;;;-145.45;100.00;57426.63;5064531;27;45481;-73
2022/04/19 11:32:51;;;;;;;;;11.50;11.50;;;;;-145.45;100.00;57426.63;5076074;28;47102;-73